Terminal Aerodrome Forecast
Issued by NWS Jackson, MS

Home | Current Version | Previous Version | Text Only | Print | Product List | Glossary On
Versions: 1 2 3 4 5 6 7 8 9 10 11 12 13 14 15 16
000
FTUS44 KJAN 302300 RRA
TAFMEI
TAF
KMEI 302348Z 3100/3124 18007KT P6SM VCSH FEW012 SCT022 BKN120
     FM310300 17007KT 6SM -SHRA VCTS SCT010 BKN020CB OVC100
     FM311000 18005KT 6SM BR VCSH BKN010 OVC020
     FM311530 19009KT P6SM BKN025 BKN050
     FM311700 20010KT P6SM SCT030 BKN050=

USA.gov is the U.S. government's official web portal to all federal, state and local government web resources and services.